Time;durP1;ratioP1;P1;durP2;ratioP2;P2;SDS_P1;SDS_P2;PMS_P1;PMS_P2;Temp;Humidity;BMP_temperature;BMP_pressure;BME280_temperature;BME280_humidity;BME280_pressure;Samples;Min_cycle;Max_cycle;Signal;HPM_P1;HPM_P2
2023/10/03 00:00:58;;;;;;;39.50;21.13;;;17.60;99.90;;;;;;5134857;27;20046;-72
2023/10/03 00:03:24;;;;;;;37.65;21.17;;;17.60;99.90;;;;;;5153793;27;20034;-73
2023/10/03 00:05:51;;;;;;;34.35;20.20;;;17.60;99.90;;;;;;5134983;27;20057;-73
2023/10/03 00:08:18;;;;;;;37.22;20.58;;;17.60;99.90;;;;;;5135828;27;20042;-73
2023/10/03 00:10:45;;;;;;;42.88;20.67;;;17.60;99.90;;;;;;5134596;27;20039;-73
2023/10/03 00:13:12;;;;;;;40.65;21.30;;;17.60;99.90;;;;;;5135153;27;20046;-73
2023/10/03 00:15:48;;;;;;;39.58;21.73;;;17.60;99.90;;;;;;5135494;27;20397;-73
2023/10/03 00:18:15;;;;;;;42.95;21.35;;;17.70;99.90;;;;;;5135396;27;20473;-73
2023/10/03 00:20:43;;;;;;;38.55;19.52;;;17.70;99.90;;;;;;5135008;27;20035;-73
2023/10/03 00:23:09;;;;;;;36.92;21.33;;;17.80;99.90;;;;;;5135218;27;20050;-73
2023/10/03 00:25:36;;;;;;;39.22;21.38;;;17.70;99.90;;;;;;5135055;27;20402;-73
2023/10/03 00:28:02;;;;;;;40.90;21.92;;;17.70;99.90;;;;;;5135329;27;20054;-73
2023/10/03 00:30:29;;;;;;;38.30;20.63;;;17.80;99.90;;;;;;5135796;27;20053;-73
2023/10/03 00:32:57;;;;;;;41.63;22.25;;;17.80;99.90;;;;;;5135116;27;20046;-73
2023/10/03 00:35:27;;;;;;;41.00;20.98;;;17.80;99.90;;;;;;5139502;27;20039;-73
2023/10/03 00:37:54;;;;;;;40.92;21.48;;;17.80;99.90;;;;;;5139386;27;20047;-73
2023/10/03 00:42:59;;;;;;;43.30;21.95;;;17.90;99.90;;;;;;5139162;27;20057;-73
2023/10/03 00:45:26;;;;;;;39.95;20.63;;;17.90;99.90;;;;;;5139127;27;20065;-73
2023/10/03 00:47:54;;;;;;;38.67;19.48;;;17.90;99.90;;;;;;5138704;27;20050;-73
2023/10/03 00:50:20;;;;;;;37.03;20.90;;;17.90;99.90;;;;;;5139548;27;20043;-73
2023/10/03 00:52:57;;;;;;;36.10;20.42;;;18.00;99.90;;;;;;5138854;27;20050;-73
2023/10/03 00:55:28;;;;;;;38.17;21.50;;;18.00;99.90;;;;;;5139435;27;20154;-73
2023/10/03 00:58:17;;;;;;;37.10;20.58;;;18.00;99.90;;;;;;5138664;27;20041;-73
2023/10/03 01:00:50;;;;;;;36.85;19.77;;;18.00;99.90;;;;;;5138768;27;20061;-73
2023/10/03 01:03:32;;;;;;;38.50;20.10;;;18.00;99.90;;;;;;5138383;27;20050;-72
2023/10/03 01:06:04;;;;;;;38.55;20.52;;;18.00;99.90;;;;;;5138768;27;20401;-73
2023/10/03 01:08:31;;;;;;;41.85;21.00;;;17.90;99.90;;;;;;5138688;27;20034;-73
2023/10/03 01:10:59;;;;;;;43.05;22.00;;;17.90;99.90;;;;;;5138430;27;20489;-73
2023/10/03 01:13:25;;;;;;;39.97;20.65;;;17.80;99.90;;;;;;5138592;27;20068;-73
2023/10/03 01:15:55;;;;;;;43.63;21.05;;;17.90;99.90;;;;;;5138383;27;20039;-73
2023/10/03 01:18:22;;;;;;;39.40;21.08;;;17.90;99.90;;;;;;5139009;27;20080;-73
2023/10/03 01:20:55;;;;;;;35.97;19.73;;;17.90;99.90;;;;;;5137905;27;20043;-73
2023/10/03 01:23:21;;;;;;;40.15;22.10;;;17.90;99.90;;;;;;5157150;27;20398;-73
2023/10/03 01:25:48;;;;;;;38.75;22.27;;;17.90;99.90;;;;;;5137790;27;20058;-73
2023/10/03 01:28:14;;;;;;;36.58;20.77;;;17.80;99.90;;;;;;5156803;27;20046;-73
2023/10/03 01:30:41;;;;;;;36.08;19.17;;;17.90;99.90;;;;;;5138315;27;20051;-73
2023/10/03 01:33:08;;;;;;;34.45;18.65;;;17.90;99.90;;;;;;5138247;27;20439;-73
2023/10/03 01:35:34;;;;;;;39.00;18.63;;;17.90;99.90;;;;;;5156750;27;20038;-73
2023/10/03 01:38:00;;;;;;;40.38;20.60;;;17.90;99.90;;;;;;5138203;27;20130;-73
2023/10/03 01:40:26;;;;;;;36.88;20.40;;;17.80;99.90;;;;;;5138454;27;20552;-73
2023/10/03 01:42:52;;;;;;;40.92;19.77;;;17.80;99.90;;;;;;5137709;27;20054;-73
2023/10/03 01:45:28;;;;;;;41.45;20.02;;;17.80;99.90;;;;;;5137617;27;20119;-73
2023/10/03 01:47:58;;;;;;;33.03;18.42;;;17.80;99.90;;;;;;5137942;27;20041;-73
2023/10/03 01:50:29;;;;;;;38.67;20.30;;;17.80;99.90;;;;;;5137726;27;20042;-73
2023/10/03 01:52:55;;;;;;;34.90;18.65;;;17.70;99.90;;;;;;5138034;27;20490;-73
2023/10/03 01:55:21;;;;;;;40.35;20.95;;;17.80;99.90;;;;;;5138060;27;20046;-73
2023/10/03 01:57:47;;;;;;;38.63;20.13;;;17.70;99.90;;;;;;5133656;27;20111;-73
2023/10/03 02:00:25;;;;;;;38.10;19.92;;;17.70;99.90;;;;;;5131061;27;20055;-73
2023/10/03 02:02:53;;;;;;;36.22;19.85;;;17.70;99.90;;;;;;5113186;28;20052;-73
2023/10/03 02:05:24;;;;;;;39.13;19.52;;;17.70;99.90;;;;;;5120441;27;20035;-73
2023/10/03 02:07:57;;;;;;;36.95;19.05;;;17.60;99.90;;;;;;5134320;27;20039;-74
2023/10/03 02:10:23;;;;;;;34.88;18.00;;;17.60;99.90;;;;;;5134124;27;20466;-74
2023/10/03 02:12:50;;;;;;;36.45;17.10;;;17.60;99.90;;;;;;5133806;27;20058;-74
2023/10/03 02:15:26;;;;;;;37.45;19.02;;;17.70;99.90;;;;;;5134011;27;20495;-74
2023/10/03 02:17:53;;;;;;;;;;;17.70;99.90;;;;;;5134245;27;20452;-73
2023/10/03 02:20:21;;;;;;;;;;;17.70;99.90;;;;;;5134499;27;20386;-74
2023/10/03 02:22:53;;;;;;;37.13;18.55;;;17.70;99.90;;;;;;5134295;27;19919;-73
2023/10/03 02:25:27;;;;;;;29.73;15.65;;;17.70;99.90;;;;;;5133452;27;20470;-74
2023/10/03 02:27:56;;;;;;;36.20;16.63;;;17.70;99.90;;;;;;5134933;27;20050;-73
2023/10/03 02:30:25;;;;;;;39.33;18.38;;;17.90;99.90;;;;;;5134058;27;20047;-73
2023/10/03 02:32:57;;;;;;;34.03;16.58;;;17.80;99.90;;;;;;5133325;27;20131;-73
2023/10/03 02:35:24;;;;;;;31.55;16.45;;;17.90;99.90;;;;;;5134865;27;20053;-74
2023/10/03 02:37:58;;;;;;;32.70;16.95;;;17.90;99.90;;;;;;5133107;27;20340;-74
2023/10/03 02:40:28;;;;;;;31.55;16.08;;;18.00;99.90;;;;;;5134978;27;20074;-73
2023/10/03 02:42:54;;;;;;;37.85;17.17;;;17.90;99.90;;;;;;5133602;27;20482;-73
2023/10/03 02:45:25;;;;;;;30.23;14.77;;;17.90;99.90;;;;;;5133210;27;20039;-73
2023/10/03 02:47:55;;;;;;;35.85;17.10;;;18.00;99.90;;;;;;5133262;27;20043;-73
2023/10/03 02:50:33;;;;;;;32.85;15.02;;;18.00;99.90;;;;;;5133677;27;20046;-73
2023/10/03 02:53:04;;;;;;;32.22;15.63;;;18.00;99.90;;;;;;5132846;27;20074;-74
2023/10/03 02:55:36;;;;;;;32.25;15.68;;;18.10;99.90;;;;;;5133125;27;20039;-74
2023/10/03 02:58:02;;;;;;;34.88;16.83;;;18.10;99.90;;;;;;5133292;27;20095;-74
2023/10/03 03:00:27;;;;;;;28.88;14.20;;;18.00;99.90;;;;;;5132414;27;20071;-73
2023/10/03 03:02:54;;;;;;;31.67;15.70;;;18.00;99.90;;;;;;5132977;27;20055;-74
2023/10/03 03:05:22;;;;;;;32.90;16.25;;;17.90;99.90;;;;;;5133353;27;20047;-74
2023/10/03 03:07:49;;;;;;;30.92;14.95;;;17.90;99.90;;;;;;5132559;27;20047;-74
2023/10/03 03:10:17;;;;;;;32.17;14.95;;;17.90;99.90;;;;;;5133003;27;20046;-73
2023/10/03 03:12:44;;;;;;;35.70;15.57;;;17.90;99.90;;;;;;5133289;27;20564;-74
2023/10/03 03:15:22;;;;;;;32.08;14.73;;;17.90;99.90;;;;;;5132139;27;20398;-74
2023/10/03 03:17:49;;;;;;;29.60;14.32;;;18.00;99.90;;;;;;5133130;27;20045;-74
2023/10/03 03:20:20;;;;;;;33.05;14.57;;;18.10;99.90;;;;;;5131975;27;20058;-73
2023/10/03 03:22:47;;;;;;;28.55;14.38;;;18.10;99.90;;;;;;5132319;27;20045;-74
2023/10/03 03:25:42;;;;;;;29.35;14.02;;;18.20;99.90;;;;;;5132812;27;20092;-74
2023/10/03 03:28:15;;;;;;;31.35;15.02;;;18.20;99.90;;;;;;5132948;27;20047;-73
2023/10/03 03:30:55;;;;;;;31.30;13.63;;;18.20;99.90;;;;;;5132484;27;20050;-74
2023/10/03 03:33:22;;;;;;;27.27;13.38;;;18.30;99.90;;;;;;5132359;27;20139;-74
2023/10/03 03:35:48;;;;;;;32.40;15.00;;;18.30;99.90;;;;;;5132059;27;20096;-75
2023/10/03 03:38:15;;;;;;;29.92;14.38;;;18.30;99.90;;;;;;5132169;27;20039;-74
2023/10/03 03:41:15;;;;;;;30.77;14.00;;;18.40;99.90;;;;;;5132328;27;20043;-74
2023/10/03 03:43:34;;;;;;;30.50;13.30;;;18.40;99.90;;;;;;5127625;27;20051;-75
2023/10/03 03:45:59;;;;;;;28.05;13.15;;;18.30;99.90;;;;;;5132210;27;20050;-74
2023/10/03 03:48:25;;;;;;;29.88;13.65;;;18.30;99.90;;;;;;5131849;27;20130;-74
2023/10/03 03:50:52;;;;;;;28.88;12.85;;;18.30;99.90;;;;;;5131881;27;20039;-74
2023/10/03 03:53:18;;;;;;;26.55;12.68;;;18.40;99.90;;;;;;5132643;27;20134;-74
2023/10/03 03:55:45;;;;;;;33.35;14.07;;;18.30;99.90;;;;;;5131937;27;20386;-75
2023/10/03 03:58:18;;;;;;;32.95;13.68;;;18.30;99.90;;;;;;5132067;27;20045;-75
2023/10/03 04:00:48;;;;;;;28.40;12.55;;;18.30;99.90;;;;;;5132248;27;20463;-77
2023/10/03 04:03:18;;;;;;;28.63;12.55;;;18.20;99.90;;;;;;5131812;27;20043;-80
2023/10/03 04:05:46;;;;;;;26.45;11.88;;;18.20;99.90;;;;;;5131994;27;20031;-81
2023/10/03 04:08:12;;;;;;;31.77;13.68;;;18.20;99.90;;;;;;5131668;27;20051;-81
2023/10/03 04:10:38;;;;;;;28.60;13.65;;;18.20;99.90;;;;;;5131810;27;20079;-81
2023/10/03 04:13:15;;;;;;;29.42;13.13;;;18.10;99.90;;;;;;5131670;27;20043;-80
2023/10/03 04:15:42;;;;;;;28.35;13.63;;;18.10;99.90;;;;;;5132225;27;20079;-80
2023/10/03 04:18:09;;;;;;;30.70;12.98;;;18.10;99.90;;;;;;5131406;28;20089;-77
2023/10/03 04:20:35;;;;;;;25.17;11.18;;;18.20;99.90;;;;;;5131926;28;20466;-81
2023/10/03 04:23:07;;;;;;;27.65;13.07;;;18.40;99.90;;;;;;5132010;28;20055;-79
2023/10/03 04:25:33;;;;;;;27.83;12.55;;;18.40;99.90;;;;;;5131110;28;20506;-79
2023/10/03 04:28:01;;;;;;;26.95;12.40;;;18.40;99.90;;;;;;5131830;28;20047;-79
2023/10/03 04:30:27;;;;;;;27.85;11.27;;;18.60;99.90;;;;;;5131455;28;20507;-79
2023/10/03 04:32:55;;;;;;;27.15;11.75;;;18.60;99.90;;;;;;5127629;28;20062;-79
2023/10/03 04:35:22;;;;;;;30.67;11.95;;;18.70;99.90;;;;;;5128305;28;20047;-79
2023/10/03 04:37:51;;;;;;;25.35;11.30;;;18.80;99.90;;;;;;5131412;28;20058;-78
2023/10/03 04:40:33;;;;;;;30.77;12.43;;;18.90;99.90;;;;;;5131902;28;20051;-78
2023/10/03 04:42:59;;;;;;;32.85;11.35;;;18.90;99.90;;;;;;5131878;28;20100;-79
2023/10/03 04:45:26;;;;;;;34.10;11.80;;;19.00;99.90;;;;;;5130829;28;20457;-78
2023/10/03 04:47:52;;;;;;;36.92;11.88;;;19.00;99.90;;;;;;5130940;28;20039;-79
2023/10/03 04:50:24;;;;;;;31.02;11.10;;;19.00;99.90;;;;;;5131005;28;20043;-79
2023/10/03 04:52:53;;;;;;;30.85;10.90;;;19.00;99.90;;;;;;5130935;28;20513;-80
2023/10/03 04:55:21;;;;;;;25.58;11.07;;;19.10;99.90;;;;;;5131630;28;20047;-79
2023/10/03 04:57:48;;;;;;;34.55;12.95;;;19.30;99.90;;;;;;5131494;28;20047;-79
2023/10/03 05:00:18;;;;;;;35.50;11.90;;;19.20;99.90;;;;;;5130270;28;20088;-79
2023/10/03 05:02:52;;;;;;;37.08;12.88;;;19.10;99.90;;;;;;5131408;28;20078;-82
2023/10/03 05:05:20;;;;;;;38.63;13.55;;;19.10;99.90;;;;;;5131453;28;20035;-78
2023/10/03 05:07:52;;;;;;;38.15;14.88;;;19.00;99.90;;;;;;5118071;28;20051;-80
2023/10/03 05:10:18;;;;;;;37.10;14.57;;;18.90;99.90;;;;;;5112400;28;20724;-87
2023/10/03 05:12:45;;;;;;;36.55;15.32;;;18.90;99.90;;;;;;5129517;28;20081;-82
2023/10/03 05:15:12;;;;;;;32.80;14.65;;;19.00;99.90;;;;;;5117686;28;20042;-84
2023/10/03 05:17:38;;;;;;;27.73;14.13;;;19.00;99.90;;;;;;5131280;28;20047;-87
2023/10/03 05:20:05;;;;;;;39.50;15.93;;;18.90;99.90;;;;;;5111415;28;20051;-80
2023/10/03 05:22:34;;;;;;;35.50;16.13;;;18.80;99.90;;;;;;5114734;28;20562;-85
2023/10/03 05:25:03;;;;;;;38.92;17.63;;;18.80;99.90;;;;;;5117510;27;20031;-87
2023/10/03 05:27:29;;;;;;;45.00;18.77;;;18.70;99.90;;;;;;5135037;27;20043;-86
2023/10/03 05:30:05;;;;;;;38.80;19.65;;;18.60;99.90;;;;;;5134826;27;20039;-87
2023/10/03 05:32:31;;;;;;;34.85;17.95;;;18.60;99.90;;;;;;5135605;27;20043;-81
2023/10/03 05:35:00;;;;;;;41.03;19.50;;;18.50;99.90;;;;;;5134072;27;20035;-82
2023/10/03 05:37:26;;;;;;;44.35;20.65;;;18.30;99.90;;;;;;5134486;27;20040;-81
2023/10/03 05:39:52;;;;;;;42.35;20.05;;;18.30;99.90;;;;;;5127598;27;20089;-82
2023/10/03 05:42:18;;;;;;;36.85;19.10;;;18.30;99.90;;;;;;5131029;27;20123;-89
2023/10/03 05:44:45;;;;;;;41.70;20.08;;;18.20;99.90;;;;;;5115096;27;20126;-84
2023/10/03 05:47:11;;;;;;;39.80;17.60;;;18.20;99.90;;;;;;5134252;27;20043;-89
2023/10/03 05:49:37;;;;;;;39.90;18.90;;;18.30;99.90;;;;;;5134107;27;20117;-88
2023/10/03 05:52:03;;;;;;;32.05;16.08;;;18.30;99.90;;;;;;5132912;27;20083;-87
2023/10/03 05:54:30;;;;;;;32.17;16.42;;;18.30;99.90;;;;;;5134351;27;20455;-84
2023/10/03 05:56:57;;;;;;;39.97;17.30;;;18.40;99.90;;;;;;5131691;27;20055;-78
2023/10/03 05:59:23;;;;;;;38.90;17.23;;;18.40;99.90;;;;;;5131031;27;20062;-78
2023/10/03 06:01:50;;;;;;;33.50;15.32;;;18.40;99.90;;;;;;5129746;27;20558;-78
2023/10/03 06:04:16;;;;;;;32.17;14.05;;;18.30;99.90;;;;;;5130629;27;20665;-78
2023/10/03 06:06:45;;;;;;;36.53;14.90;;;18.30;99.90;;;;;;5130897;27;20043;-77
2023/10/03 06:09:10;;;;;;;32.40;12.45;;;18.30;99.90;;;;;;5131503;27;20043;-77
2023/10/03 06:11:39;;;;;;;37.58;12.88;;;18.20;99.90;;;;;;5124674;27;20402;-77
2023/10/03 06:14:05;;;;;;;32.58;12.45;;;18.30;99.90;;;;;;5129986;27;20043;-78
2023/10/03 06:16:32;;;;;;;32.75;11.52;;;18.20;99.90;;;;;;5134857;27;20046;-76
2023/10/03 06:18:58;;;;;;;30.67;8.70;;;18.20;99.90;;;;;;5132751;27;20051;-77
2023/10/03 06:21:24;;;;;;;30.92;7.97;;;18.00;99.90;;;;;;5135204;27;20035;-77
2023/10/03 06:23:50;;;;;;;28.20;7.35;;;17.90;99.90;;;;;;5134535;27;20042;-77
2023/10/03 06:26:18;;;;;;;26.58;7.20;;;17.90;99.90;;;;;;5133410;27;20043;-76
2023/10/03 06:28:45;;;;;;;23.85;6.70;;;17.70;99.90;;;;;;5134283;27;20054;-76
2023/10/03 06:31:11;;;;;;;26.00;7.05;;;17.60;99.90;;;;;;5133681;27;20041;-76
2023/10/03 06:33:37;;;;;;;19.50;6.30;;;17.60;99.90;;;;;;5133294;27;20043;-76
2023/10/03 06:36:06;;;;;;;20.45;5.93;;;17.50;99.90;;;;;;5133953;27;20047;-76
2023/10/03 06:38:36;;;;;;;17.77;5.30;;;17.50;99.90;;;;;;5133149;27;20055;-76
2023/10/03 06:41:07;;;;;;;22.17;4.50;;;17.40;99.90;;;;;;5134756;27;20043;-76
2023/10/03 06:43:33;;;;;;;20.30;4.45;;;17.30;99.90;;;;;;5133574;27;20506;-76
2023/10/03 06:45:59;;;;;;;15.45;3.55;;;17.30;99.90;;;;;;5132752;27;20541;-76
2023/10/03 06:48:25;;;;;;;14.07;3.85;;;17.20;99.90;;;;;;5113125;28;20073;-76
2023/10/03 06:50:51;;;;;;;11.45;2.70;;;17.20;99.90;;;;;;5113950;28;20077;-76
2023/10/03 06:53:23;;;;;;;16.38;3.42;;;17.20;99.90;;;;;;5131147;27;20043;-76
2023/10/03 06:55:49;;;;;;;9.00;2.65;;;17.10;99.90;;;;;;5134898;27;20043;-76
2023/10/03 06:58:15;;;;;;;12.15;2.65;;;17.00;99.90;;;;;;5133260;27;20118;-76
2023/10/03 07:00:41;;;;;;;9.88;2.75;;;17.00;99.90;;;;;;5149120;27;20221;-76
2023/10/03 07:03:08;;;;;;;13.73;2.60;;;17.00;99.90;;;;;;5136507;27;20085;-76
2023/10/03 07:05:34;;;;;;;9.70;2.25;;;17.00;99.90;;;;;;5136147;27;20043;-76
2023/10/03 07:08:04;;;;;;;9.55;2.30;;;17.00;99.90;;;;;;5135635;27;20070;-76
2023/10/03 07:10:29;;;;;;;6.45;2.00;;;17.20;99.90;;;;;;5136882;27;20409;-76
2023/10/03 07:12:57;;;;;;;9.43;1.95;;;16.80;99.90;;;;;;5136319;27;20050;-76
2023/10/03 07:15:23;;;;;;;11.75;2.10;;;16.90;99.90;;;;;;5136422;27;20047;-77
2023/10/03 07:17:49;;;;;;;10.32;1.67;;;16.80;99.90;;;;;;5136214;27;20046;-76
2023/10/03 07:20:14;;;;;;;12.50;1.77;;;16.70;99.90;;;;;;5136103;27;20051;-76
2023/10/03 07:22:42;;;;;;;10.02;2.03;;;16.70;99.90;;;;;;5135493;27;20134;-76
2023/10/03 07:25:08;;;;;;;8.73;1.70;;;16.60;99.90;;;;;;5135888;27;20046;-76
2023/10/03 07:27:35;;;;;;;10.50;1.90;;;16.60;99.90;;;;;;5135804;27;20051;-76
2023/10/03 07:30:04;;;;;;;6.05;1.70;;;16.60;99.90;;;;;;5135698;27;20118;-76
2023/10/03 07:32:32;;;;;;;8.88;1.70;;;16.60;99.90;;;;;;5136533;27;20542;-77
2023/10/03 07:35:02;;;;;;;9.50;1.60;;;16.60;99.90;;;;;;5135083;27;20046;-77
2023/10/03 07:37:28;;;;;;;6.65;1.42;;;16.60;99.90;;;;;;5136211;27;20466;-76
2023/10/03 07:39:54;;;;;;;6.57;1.40;;;16.70;99.90;;;;;;5135421;27;20045;-76
2023/10/03 07:42:23;;;;;;;7.10;1.50;;;16.70;99.90;;;;;;5134729;27;20496;-76
2023/10/03 07:44:53;;;;;;;6.72;1.30;;;16.70;99.90;;;;;;5134291;27;20055;-76
2023/10/03 07:47:22;;;;;;;4.88;1.20;;;16.70;99.90;;;;;;5135856;27;20051;-76
2023/10/03 07:49:48;;;;;;;6.38;1.23;;;16.70;99.90;;;;;;5135539;27;20046;-76
2023/10/03 07:52:18;;;;;;;6.53;1.13;;;16.70;99.90;;;;;;5132367;27;20083;-76
2023/10/03 07:54:54;;;;;;;6.47;1.20;;;16.80;99.90;;;;;;5114936;27;20482;-76
2023/10/03 07:57:25;;;;;;;5.50;1.20;;;16.70;99.90;;;;;;5115200;27;20047;-76
2023/10/03 07:59:52;;;;;;;4.68;0.90;;;16.80;99.90;;;;;;5115118;27;20130;-76
2023/10/03 08:02:18;;;;;;;6.10;0.95;;;16.70;99.90;;;;;;5132836;27;20513;-76
2023/10/03 08:04:48;;;;;;;4.72;0.98;;;16.70;99.90;;;;;;5153603;27;20038;-76
2023/10/03 08:07:19;;;;;;;6.68;0.90;;;16.60;99.90;;;;;;5135799;27;20091;-76
2023/10/03 08:09:47;;;;;;;9.57;1.02;;;16.50;99.90;;;;;;5134989;27;20035;-76
2023/10/03 08:12:12;;;;;;;6.15;1.00;;;16.40;99.90;;;;;;5136020;27;20479;-75
2023/10/03 08:14:39;;;;;;;5.18;1.00;;;16.30;99.90;;;;;;5135522;27;20066;-75
2023/10/03 08:17:05;;;;;;;5.22;1.08;;;16.30;99.90;;;;;;5134457;27;20495;-75
2023/10/03 08:19:34;;;;;;;6.80;0.88;;;16.30;99.90;;;;;;5135344;27;20103;-75
2023/10/03 08:21:59;;;;;;;5.75;0.90;;;16.30;99.90;;;;;;5135282;27;20416;-75
2023/10/03 08:24:28;;;;;;;7.45;1.13;;;16.20;99.90;;;;;;5135033;27;20042;-76
2023/10/03 08:26:58;;;;;;;4.97;1.00;;;16.10;99.90;;;;;;5135335;27;20058;-75
2023/10/03 08:29:28;;;;;;;7.43;1.08;;;16.10;99.90;;;;;;5135779;27;20043;-75
2023/10/03 08:31:58;;;;;;;5.60;1.08;;;16.00;99.90;;;;;;5134109;27;20054;-75
2023/10/03 08:34:28;;;;;;;7.75;1.27;;;15.90;99.90;;;;;;5135712;27;20117;-75
2023/10/03 08:36:58;;;;;;;2.97;0.88;;;15.90;99.90;;;;;;5134677;27;20141;-75
2023/10/03 08:39:24;;;;;;;5.00;0.82;;;15.90;99.90;;;;;;5135647;27;20122;-76
2023/10/03 08:41:54;;;;;;;5.65;0.98;;;15.90;99.90;;;;;;5134760;27;20133;-75
2023/10/03 08:44:23;;;;;;;4.80;0.90;;;15.90;99.90;;;;;;5135005;27;20050;-75
2023/10/03 08:46:55;;;;;;;4.78;1.02;;;15.90;99.90;;;;;;5135042;27;20047;-75
2023/10/03 08:49:28;;;;;;;4.97;1.05;;;15.80;99.90;;;;;;5135264;27;20096;-75
2023/10/03 08:52:01;;;;;;;3.70;1.02;;;15.80;99.90;;;;;;5133982;27;20129;-76
2023/10/03 08:54:27;;;;;;;2.30;1.00;;;15.80;99.90;;;;;;5136605;27;20063;-75
2023/10/03 08:56:59;;;;;;;6.68;1.05;;;15.80;99.90;;;;;;5138870;27;20043;-76
2023/10/03 08:59:25;;;;;;;4.93;1.10;;;15.90;99.90;;;;;;5138593;27;20066;-75
2023/10/03 09:01:52;;;;;;;6.07;1.52;;;15.90;99.90;;;;;;5138403;27;20047;-75
2023/10/03 09:04:18;;;;;;;6.60;1.40;;;15.80;99.90;;;;;;5138332;27;20050;-76
2023/10/03 09:06:47;;;;;;;2.65;0.75;;;15.70;99.90;;;;;;5134487;27;20148;-76
2023/10/03 09:09:14;;;;;;;3.95;0.80;;;15.70;99.90;;;;;;5118582;27;20054;-76
2023/10/03 09:11:44;;;;;;;2.92;0.90;;;15.70;99.90;;;;;;5118752;27;20097;-76
2023/10/03 09:14:19;;;;;;;2.88;1.10;;;15.70;99.90;;;;;;5118177;27;20082;-76
2023/10/03 09:16:50;;;;;;;4.22;1.02;;;15.70;99.90;;;;;;5119462;27;20039;-76
2023/10/03 09:19:23;;;;;;;4.40;1.10;;;15.70;99.90;;;;;;5138531;27;20390;-76
2023/10/03 09:21:55;;;;;;;5.57;1.30;;;15.70;99.90;;;;;;5138210;27;20043;-76
2023/10/03 09:24:22;;;;;;;7.88;1.20;;;15.70;99.90;;;;;;5138770;27;20042;-76
2023/10/03 09:27:02;;;;;;;6.05;1.25;;;15.80;99.90;;;;;;5137616;27;20130;-77
2023/10/03 09:29:30;;;;;;;4.07;1.25;;;15.90;99.90;;;;;;5118053;27;20043;-76
2023/10/03 09:32:12;;;;;;;6.65;1.52;;;16.00;99.90;;;;;;5117773;27;20078;-77
2023/10/03 09:34:41;;;;;;;6.75;1.30;;;16.00;99.90;;;;;;5117559;27;20043;-76
2023/10/03 09:37:07;;;;;;;4.38;1.50;;;16.00;99.90;;;;;;5117574;27;20055;-77
2023/10/03 09:39:39;;;;;;;4.30;1.55;;;16.10;99.90;;;;;;5135894;27;20039;-76
2023/10/03 09:42:16;;;;;;;3.90;1.30;;;16.10;99.90;;;;;;5137452;27;20035;-76
2023/10/03 09:44:48;;;;;;;5.20;1.70;;;16.20;99.90;;;;;;5138676;27;20038;-76
2023/10/03 09:47:18;;;;;;;5.53;1.50;;;16.30;99.90;;;;;;5138029;27;20092;-76
2023/10/03 09:49:47;;;;;;;4.45;1.10;;;16.40;99.90;;;;;;5137432;27;20043;-76
2023/10/03 09:52:24;;;;;;;5.85;1.40;;;16.40;99.90;;;;;;5138028;27;20038;-77
2023/10/03 09:55:00;;;;;;;9.90;1.65;;;16.40;99.90;;;;;;5137720;27;20047;-76
2023/10/03 09:57:29;;;;;;;7.53;1.50;;;16.30;99.90;;;;;;5137573;27;20055;-77
2023/10/03 09:59:56;;;;;;;5.57;1.40;;;16.30;99.90;;;;;;5137352;27;20050;-77
2023/10/03 10:02:46;;;;;;;6.13;1.30;;;16.20;99.90;;;;;;5136865;27;20431;-77
2023/10/03 10:05:21;;;;;;;6.80;1.20;;;16.20;99.90;;;;;;5137418;27;20046;-76
2023/10/03 10:08:06;;;;;;;4.55;1.55;;;16.10;99.90;;;;;;5137287;27;20047;-76
2023/10/03 10:10:35;;;;;;;7.97;1.30;;;16.10;99.90;;;;;;5132081;27;20474;-76
2023/10/03 10:13:13;;;;;;;6.22;1.50;;;16.00;99.90;;;;;;5127964;27;20532;-76
2023/10/03 10:16:03;;;;;;;7.35;1.60;;;15.90;99.90;;;;;;5127857;27;20099;-76
2023/10/03 10:18:44;;;;;;;4.60;1.40;;;16.90;99.90;;;;;;5127334;27;20047;-76
2023/10/03 10:21:31;;;;;;;5.47;1.73;;;15.80;99.90;;;;;;5119739;27;20047;-75
2023/10/03 10:24:23;;;;;;;5.38;1.70;;;15.70;99.90;;;;;;5116257;27;20506;-75
2023/10/03 10:26:52;;;;;;;7.85;1.67;;;15.50;99.90;;;;;;5116938;27;20116;-77
2023/10/03 10:29:24;;;;;;;6.15;1.63;;;15.40;99.90;;;;;;5116465;27;20047;-76
2023/10/03 10:31:59;;;;;;;7.88;1.95;;;15.30;99.90;;;;;;5118098;27;20039;-79
2023/10/03 10:34:32;;;;;;;8.63;2.03;;;15.20;99.90;;;;;;5130625;27;20099;-80
2023/10/03 10:37:09;;;;;;;6.10;1.65;;;15.20;99.90;;;;;;5145361;27;20489;-77
2023/10/03 10:39:54;;;;;;;4.65;1.73;;;15.20;99.90;;;;;;5137564;27;20070;-77
2023/10/03 10:42:25;;;;;;;8.00;2.50;;;15.20;99.90;;;;;;5136933;27;20111;-77
2023/10/03 10:45:17;;;;;;;8.05;2.20;;;15.20;99.90;;;;;;5136017;27;20035;-77
2023/10/03 10:47:45;;;;;;;12.57;2.40;;;15.20;99.90;;;;;;5133254;27;20109;-77
2023/10/03 10:50:11;;;;;;;9.98;2.30;;;15.10;99.90;;;;;;5136466;27;20046;-77
2023/10/03 10:52:53;;;;;;;8.98;2.30;;;15.10;99.90;;;;;;5136722;27;20038;-77
2023/10/03 10:55:28;;;;;;;6.50;2.40;;;15.00;99.90;;;;;;5136928;27;20043;-77
2023/10/03 10:58:21;;;;;;;7.82;2.35;;;14.90;99.90;;;;;;5135992;27;20035;-76
2023/10/03 11:00:56;;;;;;;5.43;2.10;;;14.90;99.90;;;;;;5128630;27;20076;-77
2023/10/03 11:03:22;;;;;;;6.60;2.20;;;15.00;99.90;;;;;;5133032;27;20051;-77
2023/10/03 11:05:50;;;;;;;5.60;2.20;;;15.10;99.90;;;;;;5131978;27;20047;-76
2023/10/03 11:08:19;;;;;;;9.40;2.50;;;15.00;99.90;;;;;;5133258;27;20090;-77
2023/10/03 11:10:52;;;;;;;5.60;2.00;;;15.10;99.90;;;;;;5133497;27;20070;-78
2023/10/03 11:13:19;;;;;;;11.02;2.20;;;15.10;99.90;;;;;;5132910;27;20062;-77
2023/10/03 11:15:52;;;;;;;7.15;1.95;;;15.10;99.90;;;;;;5119883;27;20043;-77
2023/10/03 11:18:28;;;;;;;9.30;1.80;;;15.30;99.90;;;;;;5110443;28;20044;-79
2023/10/03 11:20:56;;;;;;;6.55;1.75;;;15.40;99.90;;;;;;5111425;28;20044;-81
2023/10/03 11:23:23;;;;;;;7.32;1.80;;;15.50;99.90;;;;;;5120849;27;20050;-79
2023/10/03 11:25:59;;;;;;;7.72;2.08;;;15.60;99.90;;;;;;5131826;27;20052;-79
2023/10/03 11:28:29;;;;;;;7.78;2.00;;;15.70;99.90;;;;;;5131672;27;20142;-80
2023/10/03 11:31:13;;;;;;;6.80;1.77;;;15.80;99.90;;;;;;5131876;27;20050;-80
2023/10/03 11:33:46;;;;;;;9.65;1.95;;;15.90;99.90;;;;;;5131563;27;20043;-80
2023/10/03 11:36:13;;;;;;;7.40;2.00;;;16.00;99.90;;;;;;5131578;27;20043;-81
2023/10/03 11:38:47;;;;;;;10.23;2.00;;;16.00;99.90;;;;;;5132331;27;20043;-80
2023/10/03 11:41:12;;;;;;;5.95;1.90;;;16.10;99.90;;;;;;5131562;27;20070;-80
2023/10/03 11:43:46;;;;;;;5.65;2.00;;;16.10;99.90;;;;;;5132255;27;20390;-79
2023/10/03 11:46:12;;;;;;;6.07;1.88;;;16.10;99.90;;;;;;5130600;27;20482;-80
2023/10/03 11:48:40;;;;;;;9.40;2.10;;;16.00;99.90;;;;;;5131572;27;20118;-84
2023/10/03 11:51:06;;;;;;;8.57;1.80;;;16.00;99.90;;;;;;5132641;27;20112;-88
2023/10/03 11:53:35;;;;;;;8.98;2.15;;;16.10;99.90;;;;;;5132170;27;20051;-80
2023/10/03 11:56:01;;;;;;;7.85;1.70;;;16.10;99.90;;;;;;5131276;27;20051;-81
2023/10/03 11:58:27;;;;;;;9.55;3.28;;;16.00;99.90;;;;;;5131616;27;20046;-81
2023/10/03 12:00:53;;;;;;;7.70;2.30;;;16.10;99.90;;;;;;5131382;27;20051;-84
2023/10/03 12:03:19;;;;;;;9.77;2.65;;;16.00;99.90;;;;;;5133578;27;20406;-80
2023/10/03 12:05:46;;;;;;;11.93;2.22;;;16.00;99.90;;;;;;5133579;27;20043;-78
2023/10/03 12:08:12;;;;;;;7.80;2.10;;;16.10;99.90;;;;;;5132025;27;20043;-85
2023/10/03 12:10:40;;;;;;;11.25;1.92;;;16.30;99.90;;;;;;5131846;27;20039;-82
2023/10/03 12:13:06;;;;;;;9.40;2.20;;;16.40;99.90;;;;;;5131967;27;20440;-80
2023/10/03 12:15:32;;;;;;;8.63;2.10;;;16.40;99.90;;;;;;5131037;27;20080;-80
2023/10/03 12:17:59;;;;;;;10.10;2.10;;;16.40;99.90;;;;;;5133156;27;20039;-78
2023/10/03 12:20:25;;;;;;;8.00;1.92;;;16.50;99.90;;;;;;5120314;28;20048;-78
2023/10/03 12:22:53;;;;;;;7.72;2.05;;;16.50;99.90;;;;;;5112648;28;20050;-78
2023/10/03 12:25:21;;;;;;;5.45;1.70;;;16.40;99.90;;;;;;5115350;28;20465;-78
2023/10/03 12:27:47;;;;;;;7.00;1.90;;;16.40;99.90;;;;;;5131693;28;20078;-79
2023/10/03 12:30:15;;;;;;;9.50;1.60;;;16.40;99.90;;;;;;5134427;27;20431;-79
2023/10/03 12:32:43;;;;;;;7.70;2.17;;;16.40;99.90;;;;;;5135936;27;20126;-79
2023/10/03 12:35:10;;;;;;;9.35;1.80;;;16.40;99.90;;;;;;5136070;27;20066;-81
2023/10/03 12:37:37;;;;;;;8.93;2.10;;;16.50;99.90;;;;;;5135674;27;20110;-79
2023/10/03 12:40:04;;;;;;;9.10;2.10;;;16.60;99.90;;;;;;5137387;27;20046;-80
2023/10/03 12:42:31;;;;;;;10.82;2.25;;;17.00;99.90;;;;;;5137709;27;20051;-81
2023/10/03 12:45:00;;;;;;;7.03;1.83;;;17.10;99.90;;;;;;5134976;27;20055;-79
2023/10/03 12:47:35;;;;;;;6.68;1.80;;;17.60;99.90;;;;;;5136232;27;20058;-81
2023/10/03 12:50:01;;;;;;;11.52;2.33;;;18.80;99.90;;;;;;5135516;27;20179;-84